Annville, Kentucky
Current Conditions -  °F | °C
As of 3:53 AM on Wednesday 28 Jan 2015 (Local Time) from KLOZ Reporting Station
Clear Clear  
Wind Chill: 21°   Ceiling: Unl
Heat Index: 21°   Visibility: 10mi
Dew Point: 12°   Wind: 0mph
Humidity: 68%   Direction: NA
Pressure: 30.24"   Gusts: NA
Location:  37.32°N, 83.97°W
Report Text: KLOZ 280853Z AUTO 00000KT 10SM CLR M06/M11 A3024 RMK AO2 SLP251 T10611111 53013
Loading
Personal Weather Stations






























Interactive Weather Map New forecast layout! Learn more

10-Day Weather Forecast

Advertisements
Track Severe Weather on mobile